createdAt,value
2022-11-12T00:02:30.210Z,1.18
2022-11-12T00:05:15.291Z,1.18
2022-11-12T00:08:00.822Z,1.13
2022-11-12T00:10:46.044Z,1.13
2022-11-12T00:13:31.275Z,1.11
2022-11-12T00:16:16.320Z,1.15
2022-11-12T00:19:01.529Z,1.12
2022-11-12T00:21:46.726Z,1.12
2022-11-12T00:24:32.165Z,1.17
2022-11-12T00:27:18.071Z,1.15
2022-11-12T00:30:04.113Z,1.19
2022-11-12T00:32:49.193Z,1.13
2022-11-12T00:35:34.827Z,1.11
2022-11-12T00:38:19.880Z,1.09
2022-11-12T00:41:05.226Z,1.05
2022-11-12T00:43:50.264Z,0.99
2022-11-12T00:46:35.403Z,0.88
2022-11-12T00:49:20.576Z,0.76
2022-11-12T00:52:05.808Z,0.71
2022-11-12T00:54:50.919Z,0.72
2022-11-12T00:57:36.127Z,0.74
2022-11-12T01:00:21.478Z,0.71
2022-11-12T01:03:06.613Z,0.70
2022-11-12T01:05:51.451Z,0.70
2022-11-12T01:08:36.793Z,0.74
2022-11-12T01:11:29.538Z,0.66
2022-11-12T01:14:15.037Z,0.61
2022-11-12T01:17:00.384Z,0.59
2022-11-12T01:19:45.643Z,0.53
2022-11-12T01:22:30.635Z,0.58
2022-11-12T01:25:15.943Z,0.66
2022-11-12T01:28:01.132Z,0.62
2022-11-12T01:30:46.272Z,0.65
2022-11-12T01:33:31.309Z,0.66
2022-11-12T01:36:17.696Z,0.68
2022-11-12T01:39:05.381Z,0.58
2022-11-12T01:41:50.900Z,0.61
2022-11-12T01:44:39.592Z,0.59
2022-11-12T01:47:33.027Z,0.54
2022-11-12T01:50:18.210Z,0.47
2022-11-12T01:53:10.413Z,0.45
2022-11-12T01:55:57.357Z,0.39
2022-11-12T01:58:45.914Z,0.35
2022-11-12T02:01:31.097Z,0.24
2022-11-12T02:04:16.782Z,0.18
2022-11-12T02:07:02.998Z,0.24
2022-11-12T02:09:48.725Z,0.22
2022-11-12T02:12:53.176Z,0.20
2022-11-12T02:15:39.298Z,0.17
2022-11-12T02:18:24.873Z,0.19
2022-11-12T02:21:10.312Z,0.16
2022-11-12T02:24:03.311Z,0.08
2022-11-12T02:26:53.062Z,0.05
2022-11-12T02:29:46.294Z,0.05
2022-11-12T02:32:31.933Z,-0.01
2022-11-12T02:35:17.444Z,0.14
2022-11-12T02:38:02.866Z,0.01
2022-11-12T02:40:48.058Z,-0.03
2022-11-12T02:43:33.741Z,-0.06
2022-11-12T02:46:18.736Z,-0.03
2022-11-12T02:49:04.065Z,-0.07
2022-11-12T02:51:49.110Z,-0.16
2022-11-12T02:54:34.340Z,-0.14
2022-11-12T02:57:19.472Z,-0.14
2022-11-12T03:00:06.214Z,-0.14
2022-11-12T03:03:00.440Z,-0.20
2022-11-12T03:05:46.633Z,-0.21
2022-11-12T03:08:31.973Z,-0.26
2022-11-12T03:11:17.805Z,-0.23
2022-11-12T03:14:03.504Z,-0.23
2022-11-12T03:16:48.385Z,-0.28
2022-11-12T03:19:33.683Z,-0.25
2022-11-12T03:22:18.902Z,-0.23
2022-11-12T03:25:05.071Z,-0.19
2022-11-12T03:27:57.651Z,-0.26
2022-11-12T03:30:43.728Z,-0.19
2022-11-12T03:33:28.628Z,-0.24
2022-11-12T03:36:13.868Z,-0.31
2022-11-12T03:38:59.027Z,-0.29
2022-11-12T03:41:44.164Z,-0.29
2022-11-12T03:44:29.493Z,-0.26
2022-11-12T03:47:14.665Z,-0.27
2022-11-12T03:49:59.969Z,-0.25
2022-11-12T03:52:50.098Z,-0.32
2022-11-12T03:55:35.075Z,-0.31
2022-11-12T03:58:20.423Z,-0.31
2022-11-12T04:01:05.913Z,-0.23
2022-11-12T04:03:51.058Z,-0.16
2022-11-12T04:06:54.974Z,-0.04
2022-11-12T04:09:39.971Z,0.04
2022-11-12T04:12:43.794Z,0.17
2022-11-12T04:15:29.122Z,0.25
2022-11-12T04:18:32.902Z,0.36
2022-11-12T04:21:36.936Z,0.42
2022-11-12T04:24:46.367Z,0.47
2022-11-12T04:27:33.798Z,0.54
2022-11-12T04:30:19.410Z,0.65
2022-11-12T04:33:04.413Z,0.71
2022-11-12T04:35:49.617Z,0.81
2022-11-12T04:38:34.747Z,0.88
2022-11-12T04:41:38.493Z,0.91
2022-11-12T04:44:42.261Z,0.97
2022-11-12T04:47:29.460Z,1.02
2022-11-12T04:50:17.388Z,1.03
2022-11-12T04:53:02.797Z,1.04
2022-11-12T04:55:56.323Z,1.02
2022-11-12T04:58:41.317Z,1.01
2022-11-12T05:01:26.620Z,1.05
2022-11-12T05:04:11.905Z,1.29
2022-11-12T05:06:57.410Z,1.23
2022-11-12T05:09:43.236Z,1.20
2022-11-12T05:12:28.255Z,1.20
2022-11-12T05:15:13.537Z,1.22
2022-11-12T05:17:58.933Z,1.24
2022-11-12T05:20:44.116Z,1.25
2022-11-12T05:23:29.434Z,1.30
2022-11-12T05:26:14.610Z,1.39
2022-11-12T05:28:59.889Z,1.36
2022-11-12T05:31:45.693Z,1.39
2022-11-12T05:34:30.976Z,1.44
2022-11-12T05:37:17.321Z,1.44
2022-11-12T05:40:02.630Z,1.47
2022-11-12T05:42:47.851Z,1.53
2022-11-12T05:45:32.987Z,1.53
2022-11-12T05:48:23.959Z,1.55
2022-11-12T05:51:13.557Z,1.58
2022-11-12T05:53:59.774Z,1.55
2022-11-12T05:56:44.980Z,1.55
2022-11-12T05:59:30.263Z,1.58
2022-11-12T06:02:15.694Z,1.57
2022-11-12T06:05:00.804Z,1.57
2022-11-12T06:07:45.794Z,1.66
2022-11-12T06:10:31.988Z,1.66
2022-11-12T06:13:17.603Z,1.68
2022-11-12T06:16:02.594Z,1.71
2022-11-12T06:18:47.765Z,1.80
2022-11-12T06:21:33.016Z,1.88
2022-11-12T06:24:18.661Z,1.97
2022-11-12T06:27:04.051Z,1.96
2022-11-12T06:29:49.305Z,2.01
2022-11-12T06:32:34.684Z,2.05
2022-11-12T06:35:19.997Z,2.11
2022-11-12T06:38:05.000Z,2.19
2022-11-12T06:40:50.013Z,2.26
2022-11-12T06:43:35.737Z,2.30
2022-11-12T06:46:21.125Z,2.35
2022-11-12T06:49:06.500Z,2.42
2022-11-12T06:51:51.832Z,2.51
2022-11-12T06:54:37.137Z,2.63
2022-11-12T06:57:22.369Z,2.70
2022-11-12T07:00:09.586Z,2.80
2022-11-12T07:02:54.702Z,2.88
2022-11-12T07:05:39.896Z,2.98
2022-11-12T07:08:25.532Z,3.07
2022-11-12T07:11:11.379Z,3.15
2022-11-12T07:13:56.660Z,3.25
2022-11-12T07:16:41.909Z,3.38
2022-11-12T07:19:27.030Z,3.48
2022-11-12T07:22:12.223Z,3.61
2022-11-12T07:24:57.193Z,3.75
2022-11-12T07:27:42.523Z,3.93
2022-11-12T07:30:27.772Z,4.12
2022-11-12T07:33:13.157Z,4.24
2022-11-12T07:36:07.550Z,4.38
2022-11-12T07:38:54.221Z,4.58
2022-11-12T07:41:39.041Z,4.71
2022-11-12T07:44:24.385Z,4.86
2022-11-12T07:47:09.524Z,4.92
2022-11-12T07:49:54.588Z,4.99
2022-11-12T07:52:39.823Z,4.97
2022-11-12T07:55:24.973Z,5.05
2022-11-12T07:58:10.244Z,5.10
2022-11-12T08:00:55.748Z,5.18
2022-11-12T08:03:40.723Z,5.21
2022-11-12T08:06:26.893Z,5.27
2022-11-12T08:09:11.976Z,5.48
2022-11-12T08:11:57.266Z,5.57
2022-11-12T08:14:42.460Z,5.69
2022-11-12T08:17:27.671Z,5.72
2022-11-12T08:20:13.315Z,5.77
2022-11-12T08:23:01.481Z,5.95
2022-11-12T08:25:46.687Z,6.18
2022-11-12T08:28:33.772Z,6.56
2022-11-12T08:31:22.098Z,6.94
2022-11-12T08:34:15.176Z,7.23
2022-11-12T08:37:03.819Z,7.57
2022-11-12T08:39:49.013Z,7.84
2022-11-12T08:42:34.144Z,8.06
2022-11-12T08:45:19.364Z,8.17
2022-11-12T08:48:09.564Z,8.17
2022-11-12T08:50:54.701Z,8.34
2022-11-12T08:53:39.684Z,8.41
2022-11-12T08:56:24.862Z,8.48
2022-11-12T08:59:10.058Z,8.57
2022-11-12T09:01:55.343Z,9.28
2022-11-12T09:04:40.366Z,9.91
2022-11-12T09:10:31.338Z,10.95
2022-11-12T09:13:18.291Z,11.62
2022-11-12T09:16:05.806Z,11.14
2022-11-12T09:18:51.016Z,10.72
2022-11-12T09:21:36.263Z,11.38
2022-11-12T09:24:21.697Z,14.42
2022-11-12T09:27:06.791Z,16.30
2022-11-12T09:29:51.915Z,18.32
2022-11-12T09:32:36.853Z,18.94
2022-11-12T09:35:22.507Z,19.56
2022-11-12T09:38:07.564Z,20.29
2022-11-12T09:40:52.708Z,21.86
2022-11-12T09:43:59.697Z,22.58
2022-11-12T09:47:02.250Z,24.15
2022-11-12T09:49:58.841Z,24.47
2022-11-12T09:52:48.902Z,24.95
2022-11-12T09:55:39.068Z,23.42
2022-11-12T09:58:26.028Z,20.96
2022-11-12T10:01:24.193Z,19.92
2022-11-12T10:04:27.550Z,20.09
2022-11-12T10:07:23.477Z,20.69
2022-11-12T10:10:38.901Z,20.37
2022-11-12T10:14:11.762Z,20.86
2022-11-12T10:17:11.006Z,21.63
2022-11-12T10:20:05.366Z,21.88
2022-11-12T10:22:50.196Z,19.58
2022-11-12T10:25:36.358Z,18.10
2022-11-12T10:28:25.997Z,16.98
2022-11-12T10:31:14.052Z,17.01
2022-11-12T10:34:10.633Z,17.23
2022-11-12T10:37:00.904Z,16.32
2022-11-12T10:39:47.696Z,17.30
2022-11-12T10:42:33.057Z,17.42
2022-11-12T10:45:21.688Z,19.67
2022-11-12T10:48:34.742Z,18.07
2022-11-12T10:51:27.068Z,16.65
2022-11-12T10:54:27.697Z,15.76
2022-11-12T10:57:21.416Z,15.05
2022-11-12T11:00:26.834Z,14.75
2022-11-12T11:03:24.680Z,14.11
2022-11-12T11:06:16.240Z,14.07
2022-11-12T11:09:13.188Z,13.92
2022-11-12T11:11:58.537Z,14.19
2022-11-12T11:14:44.628Z,13.99
2022-11-12T11:17:29.965Z,13.87
2022-11-12T11:20:17.938Z,13.80
2022-11-12T11:23:20.058Z,13.80
2022-11-12T11:26:23.512Z,13.55
2022-11-12T11:29:30.876Z,13.62
2022-11-12T11:32:37.915Z,14.10
2022-11-12T11:35:47.690Z,14.11
2022-11-12T11:38:39.620Z,14.28
2022-11-12T11:42:03.855Z,14.21
2022-11-12T11:45:06.442Z,14.40
2022-11-12T11:48:02.489Z,14.75
2022-11-12T11:50:57.151Z,15.04
2022-11-12T11:53:57.756Z,15.01
2022-11-12T11:56:45.138Z,14.70
2022-11-12T11:59:30.379Z,14.52
2022-11-12T12:02:30.754Z,14.39
2022-11-12T12:05:42.039Z,14.30
2022-11-12T12:08:33.153Z,14.30
2022-11-12T12:11:28.986Z,14.92
2022-11-12T12:14:41.674Z,14.99
2022-11-12T12:17:54.041Z,14.74
2022-11-12T12:20:53.356Z,14.75
2022-11-12T12:23:46.139Z,14.46
2022-11-12T12:26:40.054Z,14.26
2022-11-12T12:29:25.134Z,14.13
2022-11-12T12:32:26.879Z,14.06
2022-11-12T12:35:25.271Z,13.91
2022-11-12T12:38:10.513Z,13.99
2022-11-12T12:41:11.666Z,14.01
2022-11-12T12:44:02.978Z,14.14
2022-11-12T12:46:56.354Z,14.39
2022-11-12T12:49:42.822Z,15.76
2022-11-12T12:52:28.001Z,16.69
2022-11-12T12:55:38.453Z,19.66
2022-11-12T12:58:47.050Z,22.28
2022-11-12T13:01:35.408Z,23.68
2022-11-12T13:04:51.099Z,23.96
2022-11-12T13:07:48.676Z,22.08
2022-11-12T13:10:53.926Z,19.74
2022-11-12T13:13:39.169Z,17.90
2022-11-12T13:16:52.469Z,17.06
2022-11-12T13:19:56.916Z,16.76
2022-11-12T13:22:42.222Z,16.28
2022-11-12T13:25:30.856Z,16.01
2022-11-12T13:28:16.337Z,15.67
2022-11-12T13:31:04.446Z,15.25
2022-11-12T13:33:50.049Z,14.95
2022-11-12T13:36:35.556Z,14.88
2022-11-12T13:39:22.266Z,14.82
2022-11-12T13:42:35.751Z,15.21
2022-11-12T13:45:22.641Z,16.23
2022-11-12T13:48:12.861Z,19.10
2022-11-12T13:51:02.409Z,20.31
2022-11-12T13:53:47.970Z,19.83
2022-11-12T13:56:35.856Z,19.95
2022-11-12T13:59:24.636Z,18.30
2022-11-12T14:02:26.729Z,16.71
2022-11-12T14:05:18.432Z,15.01
2022-11-12T14:08:22.087Z,14.00
2022-11-12T14:11:15.561Z,13.21
2022-11-12T14:14:22.479Z,12.65
2022-11-12T14:17:39.938Z,12.00
2022-11-12T14:20:31.189Z,11.58
2022-11-12T14:23:24.580Z,11.45
2022-11-12T14:26:12.197Z,11.47
2022-11-12T14:28:57.148Z,11.30
2022-11-12T14:31:42.477Z,10.94
2022-11-12T14:34:33.099Z,10.69
2022-11-12T14:37:43.297Z,10.40
2022-11-12T14:40:31.936Z,10.22
2022-11-12T14:43:43.130Z,10.01
2022-11-12T14:46:49.730Z,9.83
2022-11-12T14:49:44.673Z,9.73
2022-11-12T14:52:36.245Z,9.61
2022-11-12T14:55:26.120Z,9.42
2022-11-12T14:58:15.641Z,9.21
2022-11-12T15:01:55.774Z,9.05
2022-11-12T15:04:26.091Z,8.86
2022-11-12T15:07:24.950Z,8.73
2022-11-12T15:10:33.517Z,8.62
2022-11-12T15:13:27.447Z,8.49
2022-11-12T15:16:23.365Z,8.41
2022-11-12T15:19:15.417Z,8.34
2022-11-12T15:22:02.857Z,8.26
2022-11-12T15:24:49.619Z,8.18
2022-11-12T15:27:39.810Z,8.03
2022-11-12T15:30:31.764Z,7.88
2022-11-12T15:33:22.465Z,7.71
2022-11-12T15:36:23.294Z,7.52
2022-11-12T15:39:14.315Z,7.34
2022-11-12T15:42:06.408Z,7.23
2022-11-12T15:45:10.561Z,7.16
2022-11-12T15:47:55.880Z,7.05
2022-11-12T15:50:41.256Z,7.00
2022-11-12T15:53:26.564Z,6.95
2022-11-12T15:56:17.829Z,6.86
2022-11-12T15:59:03.913Z,6.76
2022-11-12T16:01:48.971Z,6.71
2022-11-12T16:04:34.225Z,6.60
2022-11-12T16:07:19.531Z,6.53
2022-11-12T16:10:04.973Z,6.48
2022-11-12T16:12:51.768Z,6.47
2022-11-12T16:15:37.616Z,6.38
2022-11-12T16:18:22.732Z,6.35
2022-11-12T16:21:09.309Z,6.30
2022-11-12T16:23:54.424Z,6.18
2022-11-12T16:26:39.912Z,6.10
2022-11-12T16:29:24.712Z,6.09
2022-11-12T16:32:14.050Z,5.96
2022-11-12T16:35:01.244Z,5.85
2022-11-12T16:37:47.372Z,5.85
2022-11-12T16:40:32.361Z,5.81
2022-11-12T16:43:17.596Z,5.83
2022-11-12T16:46:13.444Z,5.80
2022-11-12T16:48:58.463Z,5.79
2022-11-12T16:51:43.758Z,5.77
2022-11-12T16:54:29.007Z,5.72
2022-11-12T16:57:14.268Z,5.67
2022-11-12T16:59:59.540Z,5.63
2022-11-12T17:02:49.385Z,5.57
2022-11-12T17:05:37.393Z,5.50
2022-11-12T17:08:22.756Z,5.42
2022-11-12T17:11:09.664Z,5.44
2022-11-12T17:13:54.984Z,5.41
2022-11-12T17:16:40.429Z,5.35
2022-11-12T17:19:25.936Z,5.30
2022-11-12T17:22:11.024Z,5.25
2022-11-12T17:24:55.985Z,5.19
2022-11-12T17:27:41.194Z,5.17
2022-11-12T17:30:26.476Z,5.14
2022-11-12T17:33:11.704Z,5.10
2022-11-12T17:36:01.683Z,5.01
2022-11-12T17:38:46.968Z,5.04
2022-11-12T17:41:31.996Z,4.98
2022-11-12T17:44:19.549Z,4.95
2022-11-12T17:47:04.578Z,4.96
2022-11-12T17:49:49.948Z,4.96
2022-11-12T17:52:35.170Z,4.91
2022-11-12T17:55:20.428Z,4.86
2022-11-12T17:58:05.873Z,4.84
2022-11-12T18:00:51.752Z,4.84
2022-11-12T18:03:41.783Z,4.88
2022-11-12T18:06:30.632Z,4.88
2022-11-12T18:09:16.176Z,4.98
2022-11-12T18:12:01.130Z,5.12
2022-11-12T18:14:46.508Z,5.20
2022-11-12T18:17:33.693Z,5.30
2022-11-12T18:20:19.736Z,5.38
2022-11-12T18:23:05.676Z,5.45
2022-11-12T18:25:51.311Z,5.57
2022-11-12T18:28:36.384Z,5.64
2022-11-12T18:31:23.079Z,5.74
2022-11-12T18:34:13.633Z,5.77
2022-11-12T18:36:58.755Z,5.83
2022-11-12T18:39:44.055Z,5.83
2022-11-12T18:42:29.444Z,5.79
2022-11-12T18:45:15.240Z,5.73
2022-11-12T18:48:00.292Z,5.67
2022-11-12T18:50:45.533Z,5.54
2022-11-12T18:53:30.945Z,5.47
2022-11-12T18:56:18.621Z,5.43
2022-11-12T18:59:06.640Z,5.42
2022-11-12T19:01:51.630Z,5.43
2022-11-12T19:04:41.102Z,5.49
2022-11-12T19:07:30.152Z,5.51
2022-11-12T19:10:15.727Z,5.56
2022-11-12T19:13:03.930Z,5.59
2022-11-12T19:15:48.877Z,5.61
2022-11-12T19:18:34.220Z,5.65
2022-11-12T19:21:22.474Z,5.69
2022-11-12T19:24:07.958Z,5.70
2022-11-12T19:26:53.600Z,5.72
2022-11-12T19:29:38.756Z,5.75
2022-11-12T19:32:24.114Z,5.80
2022-11-12T19:35:09.592Z,5.76
2022-11-12T19:37:54.570Z,5.69
2022-11-12T19:40:39.669Z,5.64
2022-11-12T19:43:24.886Z,5.56
2022-11-12T19:46:11.190Z,5.44
2022-11-12T19:48:56.433Z,5.31
2022-11-12T19:51:42.076Z,5.23
2022-11-12T19:54:27.536Z,5.17
2022-11-12T19:57:12.807Z,5.14
2022-11-12T19:59:58.040Z,5.09
2022-11-12T20:02:43.088Z,4.99
2022-11-12T20:05:29.331Z,4.90
2022-11-12T20:08:14.836Z,4.81
2022-11-12T20:11:01.199Z,4.73
2022-11-12T20:13:47.731Z,4.68
2022-11-12T20:16:33.005Z,4.61
2022-11-12T20:19:18.339Z,4.54
2022-11-12T20:22:03.637Z,4.50
2022-11-12T20:24:48.899Z,4.44
2022-11-12T20:27:34.116Z,4.45
2022-11-12T20:30:19.938Z,4.40
2022-11-12T20:33:05.193Z,4.36
2022-11-12T20:35:50.347Z,4.32
2022-11-12T20:38:37.580Z,4.30
2022-11-12T20:41:25.134Z,4.31
2022-11-12T20:44:10.040Z,4.34
2022-11-12T20:46:55.725Z,4.27
2022-11-12T20:49:40.606Z,4.27
2022-11-12T20:52:25.764Z,4.30
2022-11-12T20:55:10.936Z,4.42
2022-11-12T20:57:56.062Z,4.43
2022-11-12T21:00:41.584Z,4.50
2022-11-12T21:03:27.042Z,4.55
2022-11-12T21:06:15.417Z,4.64
2022-11-12T21:09:00.879Z,4.77
2022-11-12T21:11:46.071Z,4.85
2022-11-12T21:14:31.534Z,5.01
2022-11-12T21:17:16.770Z,5.00
2022-11-12T21:20:02.208Z,5.11
2022-11-12T21:22:47.656Z,5.20
2022-11-12T21:25:39.815Z,5.30
2022-11-12T21:28:24.840Z,5.39
2022-11-12T21:31:15.705Z,5.48
2022-11-12T21:34:04.298Z,5.57
2022-11-12T21:36:49.417Z,5.62
2022-11-12T21:39:34.524Z,5.66
2022-11-12T21:42:19.861Z,5.69
2022-11-12T21:45:05.536Z,5.70
2022-11-12T21:47:50.405Z,5.79
2022-11-12T21:50:35.528Z,5.76
2022-11-12T21:53:20.736Z,5.79
2022-11-12T21:56:09.828Z,5.75
2022-11-12T21:59:04.501Z,5.82
2022-11-12T22:01:49.908Z,5.85
2022-11-12T22:04:35.016Z,5.89
2022-11-12T22:07:20.581Z,5.87
2022-11-12T22:10:06.144Z,5.89
2022-11-12T22:13:19.896Z,5.91
2022-11-12T22:15:57.380Z,5.86
2022-11-12T22:18:43.534Z,5.84
2022-11-12T22:21:35.417Z,5.84
2022-11-12T22:24:23.869Z,5.82
2022-11-12T22:27:09.043Z,5.85
2022-11-12T22:29:54.143Z,5.87
2022-11-12T22:32:39.175Z,5.90
2022-11-12T22:35:24.251Z,5.96
2022-11-12T22:38:09.572Z,5.97
2022-11-12T22:41:01.051Z,5.99
2022-11-12T22:43:48.068Z,5.94
2022-11-12T22:46:34.729Z,5.93
2022-11-12T22:49:19.984Z,5.96
2022-11-12T22:52:05.680Z,6.02
2022-11-12T22:54:51.435Z,6.04
2022-11-12T22:57:38.076Z,6.06
2022-11-12T23:00:30.382Z,6.03
2022-11-12T23:03:15.707Z,6.07
2022-11-12T23:06:04.069Z,6.06
2022-11-12T23:08:50.224Z,6.08
2022-11-12T23:11:37.130Z,6.06
2022-11-12T23:14:22.267Z,6.07
2022-11-12T23:17:07.482Z,6.06
2022-11-12T23:19:52.696Z,6.05
2022-11-12T23:22:37.886Z,6.01
2022-11-12T23:25:22.978Z,6.01
2022-11-12T23:28:08.052Z,5.99
2022-11-12T23:30:53.302Z,5.99
2022-11-12T23:33:38.643Z,5.95
2022-11-12T23:36:25.483Z,5.99
2022-11-12T23:39:10.320Z,6.00
2022-11-12T23:41:55.536Z,6.02
2022-11-12T23:44:40.734Z,6.04
2022-11-12T23:47:26.094Z,6.07
2022-11-12T23:50:11.505Z,6.04
2022-11-12T23:52:56.696Z,6.05
2022-11-12T23:55:42.780Z,6.09
2022-11-12T23:58:28.360Z,6.08
